createdAt,value
2023-02-09T00:02:15.453Z,97.10
2023-02-09T00:04:43.547Z,92.30
2023-02-09T00:07:11.892Z,88.20
2023-02-09T00:09:40.140Z,83.60
2023-02-09T00:12:28.079Z,88.30
2023-02-09T00:14:56.461Z,81.20
2023-02-09T00:17:24.467Z,79.10
2023-02-09T00:19:55.134Z,79.20
2023-02-09T00:22:23.221Z,89.40
2023-02-09T00:24:51.458Z,98.60
2023-02-09T00:27:19.742Z,96.80
2023-02-09T00:29:47.791Z,91.50
2023-02-09T00:32:18.188Z,79.70
2023-02-09T00:34:46.545Z,88.40
2023-02-09T00:37:14.725Z,87.70
2023-02-09T00:39:42.798Z,81.30
2023-02-09T00:42:11.517Z,78.10
2023-02-09T00:44:40.457Z,85.30
2023-02-09T00:47:09.460Z,72.00
2023-02-09T00:49:40.266Z,74.60
2023-02-09T00:52:10.008Z,85.10
2023-02-09T00:54:38.851Z,97.40
2023-02-09T00:57:06.877Z,106.10
2023-02-09T00:59:35.984Z,90.60
2023-02-09T01:02:05.011Z,85.00
2023-02-09T01:04:33.991Z,92.70
2023-02-09T01:07:02.306Z,90.60
2023-02-09T01:09:30.667Z,86.60
2023-02-09T01:12:00.300Z,76.30
2023-02-09T01:14:28.774Z,74.50
2023-02-09T01:16:58.672Z,82.10
2023-02-09T01:19:27.393Z,69.60
2023-02-09T01:21:56.244Z,73.10
2023-02-09T01:24:24.628Z,72.30
2023-02-09T01:26:52.840Z,72.00
2023-02-09T01:29:21.235Z,63.70
2023-02-09T01:31:49.798Z,72.10
2023-02-09T01:34:19.138Z,68.40
2023-02-09T01:36:51.039Z,69.00
2023-02-09T01:39:19.841Z,59.90
2023-02-09T01:41:47.874Z,65.00
2023-02-09T01:44:16.961Z,63.20
2023-02-09T01:46:47.889Z,61.70
2023-02-09T01:49:21.876Z,59.70
2023-02-09T01:51:56.194Z,62.30
2023-02-09T01:54:29.309Z,58.80
2023-02-09T01:57:02.993Z,65.10
2023-02-09T01:59:31.332Z,55.30
2023-02-09T02:01:59.376Z,59.90
2023-02-09T02:04:27.504Z,65.40
2023-02-09T02:06:55.734Z,69.40
2023-02-09T02:09:23.778Z,68.90
2023-02-09T02:11:55.729Z,63.90
2023-02-09T02:14:30.016Z,68.70
2023-02-09T02:17:05.953Z,62.20
2023-02-09T02:19:53.828Z,63.00
2023-02-09T02:22:30.581Z,60.70
2023-02-09T02:25:37.341Z,59.30
2023-02-09T02:28:24.442Z,60.60
2023-02-09T02:31:28.362Z,60.10
2023-02-09T02:34:21.336Z,64.90
2023-02-09T02:37:14.212Z,64.60
2023-02-09T02:40:07.778Z,67.00
2023-02-09T02:42:56.764Z,54.40
2023-02-09T02:45:41.848Z,68.30
2023-02-09T02:48:17.155Z,70.60
2023-02-09T02:50:55.983Z,62.30
2023-02-09T02:53:26.865Z,68.00
2023-02-09T02:55:55.808Z,69.10
2023-02-09T02:58:24.071Z,61.40
2023-02-09T03:00:53.939Z,63.80
2023-02-09T03:03:23.115Z,73.50
2023-02-09T03:05:51.160Z,69.10
2023-02-09T03:08:19.915Z,71.50
2023-02-09T03:10:48.219Z,67.10
2023-02-09T03:13:39.121Z,71.00
2023-02-09T03:16:12.229Z,65.40
2023-02-09T03:19:02.550Z,68.10
2023-02-09T03:21:36.778Z,68.20
2023-02-09T03:24:08.957Z,60.40
2023-02-09T03:26:40.381Z,59.00
2023-02-09T03:29:08.530Z,59.30
2023-02-09T03:31:36.874Z,54.80
2023-02-09T03:34:04.980Z,59.10
2023-02-09T03:36:36.257Z,60.70
2023-02-09T03:39:04.356Z,58.50
2023-02-09T03:41:32.745Z,57.70
2023-02-09T03:44:19.733Z,60.40
2023-02-09T03:46:48.365Z,61.20
2023-02-09T03:49:16.598Z,65.70
2023-02-09T03:51:44.773Z,62.60
2023-02-09T03:54:12.908Z,58.90
2023-02-09T03:56:40.914Z,53.40
2023-02-09T03:59:09.502Z,61.70
2023-02-09T04:01:37.812Z,58.40
2023-02-09T04:04:06.182Z,54.70
2023-02-09T04:06:34.828Z,58.10
2023-02-09T04:09:04.684Z,62.70
2023-02-09T04:11:32.961Z,60.60
2023-02-09T04:14:02.197Z,57.00
2023-02-09T04:16:33.724Z,59.30
2023-02-09T04:19:02.933Z,60.00
2023-02-09T04:21:31.381Z,56.70
2023-02-09T04:24:00.178Z,62.80
2023-02-09T04:26:28.168Z,59.10
2023-02-09T04:28:56.513Z,64.10
2023-02-09T04:31:24.847Z,54.40
2023-02-09T04:33:53.134Z,55.50
2023-02-09T04:36:23.487Z,49.40
2023-02-09T04:38:52.385Z,56.40
2023-02-09T04:41:20.500Z,54.90
2023-02-09T04:43:48.739Z,51.70
2023-02-09T04:46:17.836Z,59.50
2023-02-09T04:48:46.134Z,61.10
2023-02-09T04:51:14.288Z,57.30
2023-02-09T04:53:42.730Z,58.50
2023-02-09T04:56:15.115Z,55.60
2023-02-09T04:59:02.678Z,58.80
2023-02-09T05:01:31.652Z,57.20
2023-02-09T05:04:00.146Z,50.70
2023-02-09T05:06:30.730Z,51.20
2023-02-09T05:08:58.890Z,54.80
2023-02-09T05:11:27.020Z,54.50
2023-02-09T05:13:55.802Z,53.40
2023-02-09T05:16:23.862Z,64.30
2023-02-09T05:18:52.047Z,57.80
2023-02-09T05:21:20.194Z,57.90
2023-02-09T05:23:48.421Z,64.60
2023-02-09T05:26:16.457Z,59.20
2023-02-09T05:28:45.162Z,55.90
2023-02-09T05:31:13.263Z,56.80
2023-02-09T05:33:41.393Z,62.00
2023-02-09T05:36:12.312Z,63.90
2023-02-09T05:38:41.266Z,53.10
2023-02-09T05:41:11.048Z,56.10
2023-02-09T05:43:39.373Z,54.10
2023-02-09T05:46:08.566Z,59.10
2023-02-09T05:48:37.144Z,62.00
2023-02-09T05:51:05.519Z,58.50
2023-02-09T05:53:35.421Z,66.00
2023-02-09T05:56:03.624Z,69.30
2023-02-09T05:58:31.785Z,79.70
2023-02-09T06:00:59.809Z,87.00
2023-02-09T06:03:28.019Z,74.40
2023-02-09T06:05:56.295Z,68.20
2023-02-09T06:08:24.945Z,59.10
2023-02-09T06:10:54.600Z,56.10
2023-02-09T06:13:23.161Z,55.50
2023-02-09T06:15:51.475Z,54.50
2023-02-09T06:18:19.838Z,60.20
2023-02-09T06:20:48.286Z,55.20
2023-02-09T06:23:17.972Z,51.70
2023-02-09T06:25:46.201Z,56.20
2023-02-09T06:28:14.318Z,61.80
2023-02-09T06:30:42.508Z,64.00
2023-02-09T06:33:10.851Z,61.20
2023-02-09T06:35:39.172Z,54.10
2023-02-09T06:38:07.438Z,60.40
2023-02-09T06:40:35.663Z,71.70
2023-02-09T06:43:04.125Z,67.90
2023-02-09T06:45:32.642Z,70.00
2023-02-09T06:48:00.911Z,83.70
2023-02-09T06:50:29.507Z,83.10
2023-02-09T06:52:58.670Z,82.90
2023-02-09T06:55:26.814Z,65.90
2023-02-09T06:57:55.713Z,76.80
2023-02-09T07:00:24.175Z,68.90
2023-02-09T07:02:53.278Z,69.20
2023-02-09T07:05:22.554Z,70.20
2023-02-09T07:07:50.741Z,69.70
2023-02-09T07:10:20.474Z,61.70
2023-02-09T07:12:51.906Z,56.00
2023-02-09T07:15:20.135Z,58.10
2023-02-09T07:17:48.568Z,57.50
2023-02-09T07:20:17.630Z,60.10
2023-02-09T07:22:45.862Z,59.70
2023-02-09T07:25:14.202Z,78.00
2023-02-09T07:27:45.544Z,88.30
2023-02-09T07:30:14.337Z,85.00
2023-02-09T07:32:42.421Z,98.20
2023-02-09T07:35:10.596Z,91.80
2023-02-09T07:37:38.824Z,82.00
2023-02-09T07:40:07.768Z,85.00
2023-02-09T07:42:35.813Z,83.60
2023-02-09T07:45:05.080Z,80.40
2023-02-09T07:47:34.956Z,95.00
2023-02-09T07:50:03.028Z,87.80
2023-02-09T07:52:31.136Z,86.20
2023-02-09T07:54:59.288Z,78.40
2023-02-09T07:57:27.762Z,79.70
2023-02-09T07:59:55.880Z,74.80
2023-02-09T08:02:31.390Z,69.40
2023-02-09T08:05:00.282Z,68.10
2023-02-09T08:07:29.999Z,75.00
2023-02-09T08:09:58.299Z,68.00
2023-02-09T08:12:47.956Z,72.50
2023-02-09T08:15:16.146Z,71.20
2023-02-09T08:17:44.738Z,67.00
2023-02-09T08:20:15.822Z,66.80
2023-02-09T08:22:46.684Z,62.10
2023-02-09T08:25:19.513Z,68.80
2023-02-09T08:27:47.864Z,78.00
2023-02-09T08:30:20.196Z,91.40
2023-02-09T08:32:49.981Z,90.70
2023-02-09T08:35:18.223Z,82.70
2023-02-09T08:37:46.573Z,81.50
2023-02-09T08:40:15.414Z,68.00
2023-02-09T08:42:43.753Z,69.90
2023-02-09T08:45:12.301Z,64.90
2023-02-09T08:47:40.430Z,61.70
2023-02-09T08:50:09.612Z,59.20
2023-02-09T08:52:38.287Z,58.60
2023-02-09T08:55:07.600Z,55.60
2023-02-09T08:57:44.029Z,57.70
2023-02-09T09:00:14.604Z,58.30
2023-02-09T09:02:42.910Z,58.80
2023-02-09T09:05:11.264Z,51.50
2023-02-09T09:07:39.368Z,60.20
2023-02-09T09:10:09.078Z,59.00
2023-02-09T09:12:37.280Z,64.70
2023-02-09T09:15:05.959Z,57.50
2023-02-09T09:17:35.616Z,55.50
2023-02-09T09:20:05.285Z,54.60
2023-02-09T09:22:36.749Z,60.50
2023-02-09T09:25:06.092Z,65.80
2023-02-09T09:27:36.162Z,82.90
2023-02-09T09:30:05.417Z,72.00
2023-02-09T09:32:34.553Z,79.40
2023-02-09T09:35:04.065Z,76.10
2023-02-09T09:37:32.703Z,65.80
2023-02-09T09:40:00.873Z,62.30
2023-02-09T09:42:41.900Z,61.00
2023-02-09T09:45:14.898Z,63.70
2023-02-09T09:47:43.637Z,64.20
2023-02-09T09:50:15.203Z,62.80
2023-02-09T09:52:55.998Z,59.10
2023-02-09T09:55:28.809Z,48.60
2023-02-09T09:57:58.881Z,51.80
2023-02-09T10:00:40.868Z,47.70
2023-02-09T10:03:17.124Z,46.50
2023-02-09T10:05:47.744Z,44.50
2023-02-09T10:08:33.727Z,44.10
2023-02-09T10:11:10.070Z,46.20
2023-02-09T10:13:44.682Z,50.80
2023-02-09T10:16:27.450Z,54.20
2023-02-09T10:19:00.103Z,44.90
2023-02-09T10:21:30.247Z,45.10
2023-02-09T10:24:00.064Z,50.50
2023-02-09T10:26:31.148Z,45.90
2023-02-09T10:29:07.401Z,53.70
2023-02-09T10:32:03.982Z,41.90
2023-02-09T10:34:52.281Z,36.90
2023-02-09T10:37:38.052Z,28.50
2023-02-09T10:40:09.458Z,30.90
2023-02-09T10:42:38.294Z,25.60
2023-02-09T10:45:15.486Z,25.30
2023-02-09T10:47:43.519Z,24.20
2023-02-09T10:50:12.273Z,24.80
2023-02-09T10:53:20.351Z,26.90
2023-02-09T10:58:35.447Z,22.00
2023-02-09T11:01:16.225Z,25.90
2023-02-09T11:04:05.868Z,23.30
2023-02-09T11:06:55.201Z,27.20
2023-02-09T11:09:56.728Z,26.50
2023-02-09T11:12:25.367Z,23.40
2023-02-09T11:14:54.261Z,21.70
2023-02-09T11:17:37.532Z,22.90
2023-02-09T11:20:14.927Z,21.50
2023-02-09T11:22:58.468Z,23.10
2023-02-09T11:25:35.906Z,22.70
2023-02-09T11:28:19.639Z,24.20
2023-02-09T11:31:04.334Z,23.10
2023-02-09T11:33:57.992Z,27.30
2023-02-09T11:36:47.618Z,29.10
2023-02-09T11:39:47.344Z,27.50
2023-02-09T11:42:38.414Z,24.10
2023-02-09T11:45:11.247Z,25.60
2023-02-09T11:47:52.509Z,25.80
2023-02-09T11:50:28.611Z,28.90
2023-02-09T11:53:04.072Z,31.20
2023-02-09T11:55:39.051Z,24.20
2023-02-09T11:58:42.600Z,31.20
2023-02-09T12:01:35.434Z,25.30
2023-02-09T12:04:09.324Z,23.60
2023-02-09T12:06:44.555Z,28.10
2023-02-09T12:09:28.178Z,23.20
2023-02-09T12:12:02.725Z,24.60
2023-02-09T12:14:30.890Z,27.90
2023-02-09T12:17:08.133Z,20.60
2023-02-09T12:19:38.021Z,23.50
2023-02-09T12:22:34.546Z,21.20
2023-02-09T12:25:14.394Z,22.40
2023-02-09T12:27:43.894Z,24.50
2023-02-09T12:30:40.364Z,31.70
2023-02-09T12:33:24.603Z,23.70
2023-02-09T12:36:12.962Z,21.90
2023-02-09T12:38:41.351Z,24.60
2023-02-09T12:41:09.927Z,28.20
2023-02-09T12:43:40.291Z,21.60
2023-02-09T12:46:11.938Z,24.70
2023-02-09T12:48:51.974Z,26.20
2023-02-09T12:51:37.414Z,25.30
2023-02-09T12:54:35.692Z,20.70
2023-02-09T12:57:16.077Z,19.70
2023-02-09T12:59:53.139Z,20.90
2023-02-09T13:02:38.421Z,17.90
2023-02-09T13:05:19.155Z,21.50
2023-02-09T13:08:09.198Z,21.60
2023-02-09T13:10:59.613Z,19.40
2023-02-09T13:13:48.336Z,23.70
2023-02-09T13:16:22.781Z,20.60
2023-02-09T13:19:12.505Z,22.10
2023-02-09T13:22:01.624Z,20.90
2023-02-09T13:24:37.767Z,18.50
2023-02-09T13:27:20.365Z,18.60
2023-02-09T13:29:50.056Z,19.70
2023-02-09T13:32:18.174Z,19.90
2023-02-09T13:35:01.810Z,18.20
2023-02-09T13:37:47.840Z,20.60
2023-02-09T13:40:24.284Z,19.50
2023-02-09T13:43:12.048Z,15.60
2023-02-09T13:45:49.515Z,16.90
2023-02-09T13:48:25.870Z,15.80
2023-02-09T13:50:55.353Z,19.80
2023-02-09T13:53:25.013Z,15.60
2023-02-09T13:55:54.095Z,18.10
2023-02-09T13:58:24.609Z,14.60
2023-02-09T14:00:55.028Z,18.60
2023-02-09T14:03:35.755Z,18.10
2023-02-09T14:06:20.427Z,17.80
2023-02-09T14:08:50.065Z,17.40
2023-02-09T14:11:24.377Z,16.80
2023-02-09T14:14:02.380Z,17.00
2023-02-09T14:16:31.941Z,15.40
2023-02-09T14:19:26.760Z,17.50
2023-02-09T14:21:55.338Z,19.00
2023-02-09T14:24:25.242Z,16.60
2023-02-09T14:27:15.302Z,17.60
2023-02-09T14:29:47.805Z,14.20
2023-02-09T14:32:45.568Z,14.90
2023-02-09T14:35:35.092Z,15.50
2023-02-09T14:38:03.330Z,15.90
2023-02-09T14:40:34.769Z,16.70
2023-02-09T14:43:03.899Z,17.80
2023-02-09T14:45:43.468Z,15.80
2023-02-09T14:48:24.854Z,17.70
2023-02-09T14:51:10.731Z,18.60
2023-02-09T14:53:38.955Z,17.50
2023-02-09T14:56:07.330Z,15.90
2023-02-09T14:58:35.339Z,19.10
2023-02-09T15:01:03.775Z,17.70
2023-02-09T15:03:32.017Z,21.80
2023-02-09T15:06:02.439Z,18.60
2023-02-09T15:08:31.687Z,26.70
2023-02-09T15:11:01.342Z,17.40
2023-02-09T15:13:30.675Z,16.40
2023-02-09T15:15:58.994Z,18.10
2023-02-09T15:18:27.191Z,17.20
2023-02-09T15:20:55.834Z,19.10
2023-02-09T15:23:24.067Z,19.50
2023-02-09T15:25:52.113Z,18.90
2023-02-09T15:28:28.428Z,17.80
2023-02-09T15:30:58.158Z,17.80
2023-02-09T15:33:27.393Z,18.60
2023-02-09T15:35:58.974Z,22.60
2023-02-09T15:38:28.284Z,24.10
2023-02-09T15:41:15.554Z,28.60
2023-02-09T15:44:03.924Z,29.00
2023-02-09T15:47:07.568Z,29.30
2023-02-09T15:49:36.024Z,31.20
2023-02-09T15:52:04.171Z,30.70
2023-02-09T15:54:32.499Z,36.40
2023-02-09T15:57:01.162Z,26.50
2023-02-09T15:59:29.269Z,28.50
2023-02-09T16:02:00.010Z,25.20
2023-02-09T16:04:28.445Z,25.50
2023-02-09T16:06:56.901Z,26.80
2023-02-09T18:03:20.174Z,45.00
2023-02-09T18:05:57.664Z,41.40
2023-02-09T18:08:26.604Z,37.90
2023-02-09T18:10:56.476Z,40.90
2023-02-09T18:13:25.378Z,37.90
2023-02-09T18:15:52.152Z,41.00
2023-02-09T18:18:19.582Z,39.60
2023-02-09T18:20:47.885Z,41.20
2023-02-09T18:23:15.421Z,39.60
2023-02-09T18:25:42.575Z,43.10
2023-02-09T18:28:09.529Z,62.70
2023-02-09T18:30:37.790Z,69.00
2023-02-09T18:33:05.951Z,109.10
2023-02-09T18:35:35.259Z,200.40
2023-02-09T18:38:03.122Z,238.30
2023-02-09T18:40:31.828Z,225.80
2023-02-09T18:42:59.989Z,162.30
2023-02-09T18:45:27.142Z,117.50
2023-02-09T18:47:54.071Z,73.60
2023-02-09T18:50:23.421Z,61.70
2023-02-09T18:52:59.051Z,65.50
2023-02-09T18:55:29.060Z,74.00
2023-02-09T18:57:57.750Z,70.90
2023-02-09T19:00:24.690Z,51.50
2023-02-09T19:02:53.602Z,51.40
2023-02-09T19:05:20.592Z,47.40
2023-02-09T19:07:50.552Z,71.60
2023-02-09T19:10:19.132Z,67.50
2023-02-09T19:12:49.769Z,80.40
2023-02-09T19:15:17.663Z,67.60
2023-02-09T19:17:45.297Z,64.60
2023-02-09T19:20:18.191Z,63.60
2023-02-09T19:22:47.076Z,53.70
2023-02-09T19:25:14.541Z,44.40
2023-02-09T19:27:41.771Z,41.10
2023-02-09T19:30:13.162Z,45.20
2023-02-09T19:32:41.114Z,43.30
2023-02-09T19:35:08.487Z,46.10
2023-02-09T19:37:37.064Z,67.30
2023-02-09T19:40:10.278Z,56.10
2023-02-09T19:42:37.044Z,48.20
2023-02-09T19:45:04.371Z,40.20
2023-02-09T19:47:31.835Z,40.70
2023-02-09T19:49:59.880Z,44.40
2023-02-09T19:52:27.539Z,44.00
2023-02-09T19:54:56.009Z,43.00
2023-02-09T19:57:25.291Z,41.60
2023-02-09T19:59:52.675Z,49.60
2023-02-09T20:02:19.564Z,59.80
2023-02-09T20:04:46.878Z,91.20
2023-02-09T20:07:14.353Z,80.60
2023-02-09T20:09:41.636Z,60.40
2023-02-09T20:12:09.235Z,60.50
2023-02-09T20:14:36.201Z,57.60
2023-02-09T20:17:02.965Z,58.50
2023-02-09T20:19:33.727Z,48.10
2023-02-09T20:22:02.468Z,55.50
2023-02-09T20:24:29.716Z,63.30
2023-02-09T20:26:56.681Z,61.80
2023-02-09T20:29:23.611Z,68.10
2023-02-09T20:31:50.427Z,66.70
2023-02-09T20:34:17.580Z,68.80
2023-02-09T20:36:45.168Z,77.90
2023-02-09T20:39:16.941Z,62.90
2023-02-09T20:42:04.610Z,60.10
2023-02-09T20:44:51.167Z,62.00
2023-02-09T20:47:18.351Z,64.20
2023-02-09T20:49:45.306Z,60.40
2023-02-09T20:52:12.272Z,52.10
2023-02-09T20:54:39.329Z,47.40
2023-02-09T20:57:06.064Z,41.00
2023-02-09T20:59:33.537Z,39.60
2023-02-09T21:02:00.446Z,37.60
2023-02-09T21:04:29.447Z,37.60
2023-02-09T21:06:57.503Z,35.00
2023-02-09T21:09:28.726Z,40.30
2023-02-09T21:11:59.259Z,72.40
2023-02-09T21:14:27.854Z,70.40
2023-02-09T21:17:08.009Z,52.60
2023-02-09T21:19:34.828Z,47.50
2023-02-09T21:22:01.893Z,43.70
2023-02-09T21:24:28.729Z,46.40
2023-02-09T21:26:55.821Z,54.10
2023-02-09T21:29:22.770Z,65.80
2023-02-09T21:31:51.404Z,61.30
2023-02-09T21:34:18.481Z,50.00
2023-02-09T21:36:45.231Z,44.10
2023-02-09T21:39:12.557Z,50.10
2023-02-09T21:41:58.006Z,46.70
2023-02-09T21:44:24.776Z,47.30
2023-02-09T21:46:53.191Z,59.70
2023-02-09T21:49:20.356Z,71.50
2023-02-09T21:51:47.242Z,78.10
2023-02-09T21:54:15.334Z,70.10
2023-02-09T21:56:42.426Z,66.50
2023-02-09T21:59:09.576Z,55.20
2023-02-09T22:01:38.872Z,54.10
2023-02-09T22:04:06.735Z,52.00
2023-02-09T22:06:34.113Z,57.30
2023-02-09T22:09:05.507Z,46.40
2023-02-09T22:11:33.023Z,41.30
2023-02-09T22:14:00.019Z,49.20
2023-02-09T22:16:27.194Z,47.20
2023-02-09T22:18:53.867Z,44.80
2023-02-09T22:21:25.258Z,36.20
2023-02-09T22:23:52.460Z,32.70
2023-02-09T22:26:19.596Z,32.60
2023-02-09T22:28:46.562Z,36.50
2023-02-09T22:31:15.320Z,30.30
2023-02-09T22:33:42.302Z,29.60
2023-02-09T22:36:14.677Z,30.90
2023-02-09T22:38:41.458Z,31.00
2023-02-09T22:41:20.722Z,30.00
2023-02-09T22:43:50.976Z,29.20
2023-02-09T22:46:18.961Z,26.60
2023-02-09T22:48:52.796Z,30.10
2023-02-09T22:53:47.211Z,28.30
2023-02-09T22:56:14.155Z,32.80
2023-02-09T22:58:41.076Z,27.80
2023-02-09T23:01:08.574Z,29.10
2023-02-09T23:03:36.363Z,30.10
2023-02-09T23:12:27.798Z,32.70
2023-02-09T23:14:57.180Z,25.60
2023-02-09T23:17:25.378Z,25.70
2023-02-09T23:19:53.837Z,30.10
2023-02-09T23:22:22.070Z,26.90
2023-02-09T23:24:50.202Z,26.30
2023-02-09T23:27:19.581Z,28.00
2023-02-09T23:29:48.447Z,27.10
2023-02-09T23:32:16.657Z,23.90
2023-02-09T23:34:45.000Z,26.30
2023-02-09T23:37:19.099Z,25.70
2023-02-09T23:39:56.886Z,24.20
2023-02-09T23:42:25.244Z,22.40
2023-02-09T23:44:54.003Z,24.60
2023-02-09T23:47:22.219Z,28.80
2023-02-09T23:49:50.859Z,26.60
2023-02-09T23:52:19.038Z,30.30
2023-02-09T23:54:47.840Z,30.50
2023-02-09T23:57:15.880Z,29.80
2023-02-09T23:59:44.319Z,30.60
